Kungur, Russia
Current Conditions -  °F | °C
As of 9:30 AM on Sunday 26 Oct 2014 (Local Time) from USPP Reporting Station
Scattered Clouds Scattered Clouds  
Wind Chill: -5°   Ceiling: Unl
Heat Index:   Visibility: 6mi
Dew Point:   Wind: 7mph
Humidity: 92%   Direction: 300°WNW
Pressure: 30.3"   Gusts: NA
Location:  57.43°N, 56.95°E
Report Text: USPP 260430Z 30003MPS 9999 FEW002 SCT200 M14/M15 Q1026 03810255TEMPO SCT002 RMK QBB080 QFE759/1012
Loading
Personal Weather Stations






























Interactive Weather Map
Tropical Storm Tracking
New forecast layout! Learn more

10-Day Weather Forecast

Advertisements
Track Severe Weather on mobile